sensor_id;sensor_type;location;lat;lon;timestamp;temperature;humidity
2112;DHT22;1062;52.538;13.400;2023-06-14T00:05:27;13.80;99.90
2112;DHT22;1062;52.538;13.400;2023-06-14T00:07:55;13.70;99.90
2112;DHT22;1062;52.538;13.400;2023-06-14T00:10:20;13.70;99.90
2112;DHT22;1062;52.538;13.400;2023-06-14T00:12:46;13.60;99.90
2112;DHT22;1062;52.538;13.400;2023-06-14T00:15:11;13.60;99.90
2112;DHT22;1062;52.538;13.400;2023-06-14T00:17:37;13.60;99.90
2112;DHT22;1062;52.538;13.400;2023-06-14T00:20:04;13.50;99.90
2112;DHT22;1062;52.538;13.400;2023-06-14T00:22:33;13.50;99.90
2112;DHT22;1062;52.538;13.400;2023-06-14T00:24:59;13.50;99.90
2112;DHT22;1062;52.538;13.400;2023-06-14T00:27:25;13.50;99.90
2112;DHT22;1062;52.538;13.400;2023-06-14T00:29:51;13.40;99.90
2112;DHT22;1062;52.538;13.400;2023-06-14T00:32:18;13.40;99.90
2112;DHT22;1062;52.538;13.400;2023-06-14T00:34:43;13.30;99.90
2112;DHT22;1062;52.538;13.400;2023-06-14T00:37:09;13.30;99.90
2112;DHT22;1062;52.538;13.400;2023-06-14T00:39:34;13.30;99.90
2112;DHT22;1062;52.538;13.400;2023-06-14T00:42:00;13.30;99.90
2112;DHT22;1062;52.538;13.400;2023-06-14T00:44:26;13.20;99.90
2112;DHT22;1062;52.538;13.400;2023-06-14T00:46:51;13.20;99.90
2112;DHT22;1062;52.538;13.400;2023-06-14T00:49:17;13.20;99.90
2112;DHT22;1062;52.538;13.400;2023-06-14T00:51:43;13.20;99.90
2112;DHT22;1062;52.538;13.400;2023-06-14T00:54:09;13.20;99.90
2112;DHT22;1062;52.538;13.400;2023-06-14T00:56:38;13.30;99.90
2112;DHT22;1062;52.538;13.400;2023-06-14T00:59:04;13.30;99.90
2112;DHT22;1062;52.538;13.400;2023-06-14T01:01:31;13.30;99.90
2112;DHT22;1062;52.538;13.400;2023-06-14T01:03:59;13.30;99.90
2112;DHT22;1062;52.538;13.400;2023-06-14T01:09:18;13.30;99.90
2112;DHT22;1062;52.538;13.400;2023-06-14T01:12:07;13.30;99.90
2112;DHT22;1062;52.538;13.400;2023-06-14T01:14:36;13.20;99.90
2112;DHT22;1062;52.538;13.400;2023-06-14T01:17:03;13.20;99.90
2112;DHT22;1062;52.538;13.400;2023-06-14T01:19:30;13.20;99.90
2112;DHT22;1062;52.538;13.400;2023-06-14T01:21:57;13.20;99.90
2112;DHT22;1062;52.538;13.400;2023-06-14T01:24:24;13.20;99.90
2112;DHT22;1062;52.538;13.400;2023-06-14T01:26:52;13.20;99.90
2112;DHT22;1062;52.538;13.400;2023-06-14T01:29:22;13.20;99.90
2112;DHT22;1062;52.538;13.400;2023-06-14T01:31:49;13.20;99.90
2112;DHT22;1062;52.538;13.400;2023-06-14T01:34:16;13.20;99.90
2112;DHT22;1062;52.538;13.400;2023-06-14T01:36:43;13.20;99.90
2112;DHT22;1062;52.538;13.400;2023-06-14T01:39:11;13.10;99.90
2112;DHT22;1062;52.538;13.400;2023-06-14T01:41:40;13.10;99.90
2112;DHT22;1062;52.538;13.400;2023-06-14T01:44:06;13.10;99.90
2112;DHT22;1062;52.538;13.400;2023-06-14T01:46:32;13.10;99.90
2112;DHT22;1062;52.538;13.400;2023-06-14T01:48:58;13.10;99.90
2112;DHT22;1062;52.538;13.400;2023-06-14T01:51:24;13.10;99.90
2112;DHT22;1062;52.538;13.400;2023-06-14T01:53:49;13.00;99.90
2112;DHT22;1062;52.538;13.400;2023-06-14T01:56:15;13.00;99.90
2112;DHT22;1062;52.538;13.400;2023-06-14T01:58:41;13.00;99.90
2112;DHT22;1062;52.538;13.400;2023-06-14T02:01:07;12.90;99.90
2112;DHT22;1062;52.538;13.400;2023-06-14T02:03:33;12.90;99.90
2112;DHT22;1062;52.538;13.400;2023-06-14T02:05:59;12.90;99.90
2112;DHT22;1062;52.538;13.400;2023-06-14T02:08:25;12.90;99.90
2112;DHT22;1062;52.538;13.400;2023-06-14T02:10:51;12.90;99.90
2112;DHT22;1062;52.538;13.400;2023-06-14T02:13:17;12.80;99.90
2112;DHT22;1062;52.538;13.400;2023-06-14T02:15:42;12.80;99.90
2112;DHT22;1062;52.538;13.400;2023-06-14T02:18:09;12.80;99.90
2112;DHT22;1062;52.538;13.400;2023-06-14T02:20:35;12.80;99.90
2112;DHT22;1062;52.538;13.400;2023-06-14T02:23:01;12.70;99.90
2112;DHT22;1062;52.538;13.400;2023-06-14T02:25:27;12.70;99.90
2112;DHT22;1062;52.538;13.400;2023-06-14T02:27:54;12.80;99.90
2112;DHT22;1062;52.538;13.400;2023-06-14T02:30:20;12.70;99.90
2112;DHT22;1062;52.538;13.400;2023-06-14T02:32:46;12.70;99.90
2112;DHT22;1062;52.538;13.400;2023-06-14T02:35:14;12.70;99.90
2112;DHT22;1062;52.538;13.400;2023-06-14T02:37:40;12.60;99.90
2112;DHT22;1062;52.538;13.400;2023-06-14T02:40:06;12.50;99.90
2112;DHT22;1062;52.538;13.400;2023-06-14T02:42:32;12.50;99.90
2112;DHT22;1062;52.538;13.400;2023-06-14T02:44:58;12.40;99.90
2112;DHT22;1062;52.538;13.400;2023-06-14T02:47:23;12.40;99.90
2112;DHT22;1062;52.538;13.400;2023-06-14T02:49:50;12.40;99.90
2112;DHT22;1062;52.538;13.400;2023-06-14T02:52:15;12.40;99.90
2112;DHT22;1062;52.538;13.400;2023-06-14T02:54:41;12.30;99.90
2112;DHT22;1062;52.538;13.400;2023-06-14T02:57:07;12.40;99.90
2112;DHT22;1062;52.538;13.400;2023-06-14T02:59:34;12.40;99.90
2112;DHT22;1062;52.538;13.400;2023-06-14T03:01:59;12.30;99.90
2112;DHT22;1062;52.538;13.400;2023-06-14T03:04:25;12.30;99.90
2112;DHT22;1062;52.538;13.400;2023-06-14T03:06:52;12.30;99.90
2112;DHT22;1062;52.538;13.400;2023-06-14T03:09:19;12.30;99.90
2112;DHT22;1062;52.538;13.400;2023-06-14T03:11:45;12.30;99.90
2112;DHT22;1062;52.538;13.400;2023-06-14T03:14:10;12.30;99.90
2112;DHT22;1062;52.538;13.400;2023-06-14T03:16:36;12.30;99.90
2112;DHT22;1062;52.538;13.400;2023-06-14T03:19:02;12.30;99.90
2112;DHT22;1062;52.538;13.400;2023-06-14T03:21:28;12.30;99.90
2112;DHT22;1062;52.538;13.400;2023-06-14T03:23:54;12.40;99.90
2112;DHT22;1062;52.538;13.400;2023-06-14T03:26:20;12.40;99.90
2112;DHT22;1062;52.538;13.400;2023-06-14T03:28:46;12.40;99.90
2112;DHT22;1062;52.538;13.400;2023-06-14T03:31:14;12.40;99.90
2112;DHT22;1062;52.538;13.400;2023-06-14T03:33:41;12.50;99.90
2112;DHT22;1062;52.538;13.400;2023-06-14T03:36:07;12.50;99.90
2112;DHT22;1062;52.538;13.400;2023-06-14T03:38:33;12.50;99.90
2112;DHT22;1062;52.538;13.400;2023-06-14T03:40:59;12.50;99.90
2112;DHT22;1062;52.538;13.400;2023-06-14T03:43:25;12.60;99.90
2112;DHT22;1062;52.538;13.400;2023-06-14T03:45:51;12.60;99.90
2112;DHT22;1062;52.538;13.400;2023-06-14T03:48:16;12.60;99.90
2112;DHT22;1062;52.538;13.400;2023-06-14T03:50:42;12.60;99.90
2112;DHT22;1062;52.538;13.400;2023-06-14T03:53:08;12.70;99.90
2112;DHT22;1062;52.538;13.400;2023-06-14T03:55:34;12.70;99.90
2112;DHT22;1062;52.538;13.400;2023-06-14T03:58:00;12.80;99.90
2112;DHT22;1062;52.538;13.400;2023-06-14T04:00:26;12.90;99.90
2112;DHT22;1062;52.538;13.400;2023-06-14T04:02:52;13.10;99.90
2112;DHT22;1062;52.538;13.400;2023-06-14T04:05:18;13.20;99.90
2112;DHT22;1062;52.538;13.400;2023-06-14T04:07:45;13.30;99.90
2112;DHT22;1062;52.538;13.400;2023-06-14T04:10:12;13.40;99.90
2112;DHT22;1062;52.538;13.400;2023-06-14T04:12:38;13.50;99.90
2112;DHT22;1062;52.538;13.400;2023-06-14T04:15:04;13.60;99.90
2112;DHT22;1062;52.538;13.400;2023-06-14T04:17:34;13.80;99.90
2112;DHT22;1062;52.538;13.400;2023-06-14T04:20:00;14.60;99.90
2112;DHT22;1062;52.538;13.400;2023-06-14T04:22:27;15.60;99.90
2112;DHT22;1062;52.538;13.400;2023-06-14T04:24:57;16.70;99.90
2112;DHT22;1062;52.538;13.400;2023-06-14T04:27:23;17.30;99.90
2112;DHT22;1062;52.538;13.400;2023-06-14T04:29:54;17.90;99.90
2112;DHT22;1062;52.538;13.400;2023-06-14T04:32:23;17.80;99.90
2112;DHT22;1062;52.538;13.400;2023-06-14T04:34:51;17.10;99.90
2112;DHT22;1062;52.538;13.400;2023-06-14T04:37:19;17.50;99.90
2112;DHT22;1062;52.538;13.400;2023-06-14T04:39:46;18.00;99.90
2112;DHT22;1062;52.538;13.400;2023-06-14T04:42:12;18.10;99.90
2112;DHT22;1062;52.538;13.400;2023-06-14T04:44:41;18.30;99.90
2112;DHT22;1062;52.538;13.400;2023-06-14T04:47:07;18.00;99.90
2112;DHT22;1062;52.538;13.400;2023-06-14T04:49:32;18.20;99.90
2112;DHT22;1062;52.538;13.400;2023-06-14T04:51:59;17.70;99.90
2112;DHT22;1062;52.538;13.400;2023-06-14T04:54:27;17.20;99.90
2112;DHT22;1062;52.538;13.400;2023-06-14T04:56:53;17.40;99.90
2112;DHT22;1062;52.538;13.400;2023-06-14T04:59:20;17.40;99.90
2112;DHT22;1062;52.538;13.400;2023-06-14T05:01:49;17.60;99.90
2112;DHT22;1062;52.538;13.400;2023-06-14T05:04:15;18.50;99.90
2112;DHT22;1062;52.538;13.400;2023-06-14T05:06:44;18.40;99.90
2112;DHT22;1062;52.538;13.400;2023-06-14T05:09:13;18.80;99.90
2112;DHT22;1062;52.538;13.400;2023-06-14T05:11:40;19.20;99.90
2112;DHT22;1062;52.538;13.400;2023-06-14T05:14:07;18.50;99.90
2112;DHT22;1062;52.538;13.400;2023-06-14T05:16:33;17.70;99.90
2112;DHT22;1062;52.538;13.400;2023-06-14T05:18:59;17.40;99.90
2112;DHT22;1062;52.538;13.400;2023-06-14T05:21:26;17.30;99.90
2112;DHT22;1062;52.538;13.400;2023-06-14T05:23:52;17.30;99.90
2112;DHT22;1062;52.538;13.400;2023-06-14T05:26:19;17.30;99.90
2112;DHT22;1062;52.538;13.400;2023-06-14T05:28:45;17.20;99.90
2112;DHT22;1062;52.538;13.400;2023-06-14T05:31:10;16.90;99.90
2112;DHT22;1062;52.538;13.400;2023-06-14T05:33:36;16.70;99.90
2112;DHT22;1062;52.538;13.400;2023-06-14T05:36:01;16.70;99.90
2112;DHT22;1062;52.538;13.400;2023-06-14T05:38:27;16.60;99.90
2112;DHT22;1062;52.538;13.400;2023-06-14T05:40:53;16.40;99.90
2112;DHT22;1062;52.538;13.400;2023-06-14T05:43:19;16.50;99.90
2112;DHT22;1062;52.538;13.400;2023-06-14T05:45:45;16.40;99.90
2112;DHT22;1062;52.538;13.400;2023-06-14T05:48:10;16.50;99.90
2112;DHT22;1062;52.538;13.400;2023-06-14T05:50:36;16.30;99.90
2112;DHT22;1062;52.538;13.400;2023-06-14T05:53:01;16.40;99.90
2112;DHT22;1062;52.538;13.400;2023-06-14T05:55:27;16.20;99.90
2112;DHT22;1062;52.538;13.400;2023-06-14T05:57:52;16.00;99.90
2112;DHT22;1062;52.538;13.400;2023-06-14T06:00:18;16.00;99.90
2112;DHT22;1062;52.538;13.400;2023-06-14T06:02:45;16.00;99.90
2112;DHT22;1062;52.538;13.400;2023-06-14T06:05:13;15.90;99.90
2112;DHT22;1062;52.538;13.400;2023-06-14T06:07:40;15.90;99.90
2112;DHT22;1062;52.538;13.400;2023-06-14T06:10:07;15.90;99.90
2112;DHT22;1062;52.538;13.400;2023-06-14T06:12:32;15.80;99.90
2112;DHT22;1062;52.538;13.400;2023-06-14T06:14:59;15.70;99.90
2112;DHT22;1062;52.538;13.400;2023-06-14T06:17:26;15.70;99.90
2112;DHT22;1062;52.538;13.400;2023-06-14T06:19:52;15.80;99.90
2112;DHT22;1062;52.538;13.400;2023-06-14T06:22:17;15.80;99.90
2112;DHT22;1062;52.538;13.400;2023-06-14T06:24:43;15.90;99.90
2112;DHT22;1062;52.538;13.400;2023-06-14T06:27:09;16.00;99.90
2112;DHT22;1062;52.538;13.400;2023-06-14T06:29:35;16.10;99.90
2112;DHT22;1062;52.538;13.400;2023-06-14T06:32:01;16.20;99.90
2112;DHT22;1062;52.538;13.400;2023-06-14T06:34:26;16.20;99.90
2112;DHT22;1062;52.538;13.400;2023-06-14T06:36:52;16.20;99.90
2112;DHT22;1062;52.538;13.400;2023-06-14T06:39:18;16.00;99.90
2112;DHT22;1062;52.538;13.400;2023-06-14T06:41:43;16.10;99.90
2112;DHT22;1062;52.538;13.400;2023-06-14T06:44:09;16.10;99.90
2112;DHT22;1062;52.538;13.400;2023-06-14T06:46:38;16.10;99.90
2112;DHT22;1062;52.538;13.400;2023-06-14T06:49:06;16.10;99.90
2112;DHT22;1062;52.538;13.400;2023-06-14T06:51:32;16.30;99.90
2112;DHT22;1062;52.538;13.400;2023-06-14T06:53:58;16.40;99.90
2112;DHT22;1062;52.538;13.400;2023-06-14T06:56:23;16.50;99.90
2112;DHT22;1062;52.538;13.400;2023-06-14T06:58:50;16.60;99.90
2112;DHT22;1062;52.538;13.400;2023-06-14T07:01:16;16.70;99.90
2112;DHT22;1062;52.538;13.400;2023-06-14T07:03:42;16.80;99.90
2112;DHT22;1062;52.538;13.400;2023-06-14T07:06:08;16.90;99.90
2112;DHT22;1062;52.538;13.400;2023-06-14T07:08:34;17.00;99.90
2112;DHT22;1062;52.538;13.400;2023-06-14T07:11:01;17.20;99.90
2112;DHT22;1062;52.538;13.400;2023-06-14T07:13:27;17.20;99.90
2112;DHT22;1062;52.538;13.400;2023-06-14T07:15:58;17.20;99.90
2112;DHT22;1062;52.538;13.400;2023-06-14T07:18:26;17.20;99.90
2112;DHT22;1062;52.538;13.400;2023-06-14T07:20:52;17.30;99.90
2112;DHT22;1062;52.538;13.400;2023-06-14T07:23:19;17.30;99.90
2112;DHT22;1062;52.538;13.400;2023-06-14T07:25:45;17.40;99.90
2112;DHT22;1062;52.538;13.400;2023-06-14T07:28:11;17.40;99.90
2112;DHT22;1062;52.538;13.400;2023-06-14T07:30:36;17.50;99.90
2112;DHT22;1062;52.538;13.400;2023-06-14T07:33:02;17.60;99.90
2112;DHT22;1062;52.538;13.400;2023-06-14T07:35:28;17.90;99.90
2112;DHT22;1062;52.538;13.400;2023-06-14T07:37:53;18.20;99.90
2112;DHT22;1062;52.538;13.400;2023-06-14T07:40:19;18.60;99.90
2112;DHT22;1062;52.538;13.400;2023-06-14T07:42:45;19.50;99.90
2112;DHT22;1062;52.538;13.400;2023-06-14T07:45:13;20.00;99.90
2112;DHT22;1062;52.538;13.400;2023-06-14T07:47:39;20.20;99.90
2112;DHT22;1062;52.538;13.400;2023-06-14T07:50:05;20.70;99.90
2112;DHT22;1062;52.538;13.400;2023-06-14T07:52:30;21.10;99.90
2112;DHT22;1062;52.538;13.400;2023-06-14T07:54:56;21.10;99.90
2112;DHT22;1062;52.538;13.400;2023-06-14T07:57:22;21.70;99.90
2112;DHT22;1062;52.538;13.400;2023-06-14T07:59:48;21.20;99.90
2112;DHT22;1062;52.538;13.400;2023-06-14T08:02:14;21.10;99.90
2112;DHT22;1062;52.538;13.400;2023-06-14T08:04:39;21.30;99.90
2112;DHT22;1062;52.538;13.400;2023-06-14T08:07:06;21.50;99.90
2112;DHT22;1062;52.538;13.400;2023-06-14T08:09:32;22.30;99.90
2112;DHT22;1062;52.538;13.400;2023-06-14T08:11:58;22.40;99.90
2112;DHT22;1062;52.538;13.400;2023-06-14T08:14:23;22.80;99.90
2112;DHT22;1062;52.538;13.400;2023-06-14T08:16:49;22.50;99.90
2112;DHT22;1062;52.538;13.400;2023-06-14T08:19:15;22.30;99.90
2112;DHT22;1062;52.538;13.400;2023-06-14T08:21:42;22.20;99.90
2112;DHT22;1062;52.538;13.400;2023-06-14T08:24:11;22.40;99.90
2112;DHT22;1062;52.538;13.400;2023-06-14T08:26:38;22.40;99.90
2112;DHT22;1062;52.538;13.400;2023-06-14T08:29:03;22.20;99.90
2112;DHT22;1062;52.538;13.400;2023-06-14T08:31:29;22.90;99.90
2112;DHT22;1062;52.538;13.400;2023-06-14T08:33:57;23.80;99.90
2112;DHT22;1062;52.538;13.400;2023-06-14T08:36:22;24.00;99.90
2112;DHT22;1062;52.538;13.400;2023-06-14T08:38:48;24.30;99.90
2112;DHT22;1062;52.538;13.400;2023-06-14T08:41:21;24.50;99.90
2112;DHT22;1062;52.538;13.400;2023-06-14T08:43:47;24.20;99.90
2112;DHT22;1062;52.538;13.400;2023-06-14T08:46:13;23.90;99.90
2112;DHT22;1062;52.538;13.400;2023-06-14T08:48:44;23.40;99.90
2112;DHT22;1062;52.538;13.400;2023-06-14T08:51:10;22.70;99.90
2112;DHT22;1062;52.538;13.400;2023-06-14T08:53:38;22.70;99.90
2112;DHT22;1062;52.538;13.400;2023-06-14T08:56:08;23.00;99.90
2112;DHT22;1062;52.538;13.400;2023-06-14T08:58:45;22.50;99.90
2112;DHT22;1062;52.538;13.400;2023-06-14T09:01:13;22.40;99.90
2112;DHT22;1062;52.538;13.400;2023-06-14T09:03:43;22.30;99.90
2112;DHT22;1062;52.538;13.400;2023-06-14T09:06:11;22.30;99.90
2112;DHT22;1062;52.538;13.400;2023-06-14T09:08:45;22.40;99.90
2112;DHT22;1062;52.538;13.400;2023-06-14T09:11:14;22.80;99.90
2112;DHT22;1062;52.538;13.400;2023-06-14T09:13:41;22.80;99.90
2112;DHT22;1062;52.538;13.400;2023-06-14T09:16:07;22.90;99.90
2112;DHT22;1062;52.538;13.400;2023-06-14T09:18:42;23.10;99.90
2112;DHT22;1062;52.538;13.400;2023-06-14T09:21:16;23.00;99.90
2112;DHT22;1062;52.538;13.400;2023-06-14T09:23:47;22.60;99.90
2112;DHT22;1062;52.538;13.400;2023-06-14T09:26:17;22.40;99.90
2112;DHT22;1062;52.538;13.400;2023-06-14T09:28:46;22.20;99.90
2112;DHT22;1062;52.538;13.400;2023-06-14T09:31:12;22.60;99.90
2112;DHT22;1062;52.538;13.400;2023-06-14T09:33:38;22.60;99.90
2112;DHT22;1062;52.538;13.400;2023-06-14T09:36:08;22.50;99.90
2112;DHT22;1062;52.538;13.400;2023-06-14T09:38:35;22.50;99.90
2112;DHT22;1062;52.538;13.400;2023-06-14T09:41:03;22.40;99.90
2112;DHT22;1062;52.538;13.400;2023-06-14T09:43:29;22.30;99.90
2112;DHT22;1062;52.538;13.400;2023-06-14T09:45:55;22.50;99.90
2112;DHT22;1062;52.538;13.400;2023-06-14T09:48:21;22.40;99.90
2112;DHT22;1062;52.538;13.400;2023-06-14T09:50:47;22.40;99.90
2112;DHT22;1062;52.538;13.400;2023-06-14T09:53:14;22.30;99.90
2112;DHT22;1062;52.538;13.400;2023-06-14T09:55:41;22.20;99.90
2112;DHT22;1062;52.538;13.400;2023-06-14T09:58:08;22.00;99.90
2112;DHT22;1062;52.538;13.400;2023-06-14T10:00:36;22.00;99.90
2112;DHT22;1062;52.538;13.400;2023-06-14T10:03:13;22.10;99.90
2112;DHT22;1062;52.538;13.400;2023-06-14T10:05:41;22.00;99.90
2112;DHT22;1062;52.538;13.400;2023-06-14T10:08:09;21.90;99.90
2112;DHT22;1062;52.538;13.400;2023-06-14T10:10:38;21.70;99.90
2112;DHT22;1062;52.538;13.400;2023-06-14T10:13:04;21.80;99.90
2112;DHT22;1062;52.538;13.400;2023-06-14T10:15:35;21.60;99.90
2112;DHT22;1062;52.538;13.400;2023-06-14T10:21:04;21.80;99.90
2112;DHT22;1062;52.538;13.400;2023-06-14T10:23:37;22.10;99.90
2112;DHT22;1062;52.538;13.400;2023-06-14T10:26:03;22.10;99.90
2112;DHT22;1062;52.538;13.400;2023-06-14T10:28:28;22.10;99.90
2112;DHT22;1062;52.538;13.400;2023-06-14T10:31:11;21.60;99.90
2112;DHT22;1062;52.538;13.400;2023-06-14T10:33:56;21.60;99.90
2112;DHT22;1062;52.538;13.400;2023-06-14T10:41:28;22.10;99.90
2112;DHT22;1062;52.538;13.400;2023-06-14T10:46:38;22.50;99.80
2112;DHT22;1062;52.538;13.400;2023-06-14T10:49:04;22.30;99.90
2112;DHT22;1062;52.538;13.400;2023-06-14T10:51:38;22.40;99.90
2112;DHT22;1062;52.538;13.400;2023-06-14T10:54:15;22.60;99.90
2112;DHT22;1062;52.538;13.400;2023-06-14T10:56:52;22.90;99.20
2112;DHT22;1062;52.538;13.400;2023-06-14T10:59:20;22.60;99.00
2112;DHT22;1062;52.538;13.400;2023-06-14T11:01:58;22.50;98.80
2112;DHT22;1062;52.538;13.400;2023-06-14T11:04:46;22.40;98.80
2112;DHT22;1062;52.538;13.400;2023-06-14T11:10:37;22.80;98.00
2112;DHT22;1062;52.538;13.400;2023-06-14T11:13:03;22.40;98.40
2112;DHT22;1062;52.538;13.400;2023-06-14T11:15:30;22.70;98.70
2112;DHT22;1062;52.538;13.400;2023-06-14T11:17:56;22.60;98.00
2112;DHT22;1062;52.538;13.400;2023-06-14T11:20:25;22.70;97.60
2112;DHT22;1062;52.538;13.400;2023-06-14T11:22:52;22.90;97.20
2112;DHT22;1062;52.538;13.400;2023-06-14T11:25:18;22.90;97.20
2112;DHT22;1062;52.538;13.400;2023-06-14T11:27:46;22.90;97.00
2112;DHT22;1062;52.538;13.400;2023-06-14T11:30:12;23.10;96.60
2112;DHT22;1062;52.538;13.400;2023-06-14T11:32:38;23.20;96.40
2112;DHT22;1062;52.538;13.400;2023-06-14T11:35:05;23.00;95.70
2112;DHT22;1062;52.538;13.400;2023-06-14T11:37:31;23.10;95.70
2112;DHT22;1062;52.538;13.400;2023-06-14T11:40:01;23.30;95.70
2112;DHT22;1062;52.538;13.400;2023-06-14T11:42:28;23.50;95.10
2112;DHT22;1062;52.538;13.400;2023-06-14T11:44:55;23.60;94.90
2112;DHT22;1062;52.538;13.400;2023-06-14T11:47:21;23.90;94.50
2112;DHT22;1062;52.538;13.400;2023-06-14T11:49:47;23.70;94.60
2112;DHT22;1062;52.538;13.400;2023-06-14T11:52:13;23.80;94.30
2112;DHT22;1062;52.538;13.400;2023-06-14T11:54:39;23.80;94.30
2112;DHT22;1062;52.538;13.400;2023-06-14T11:57:07;23.80;94.20
2112;DHT22;1062;52.538;13.400;2023-06-14T11:59:38;24.30;93.60
2112;DHT22;1062;52.538;13.400;2023-06-14T12:02:05;24.20;93.10
2112;DHT22;1062;52.538;13.400;2023-06-14T12:04:31;23.80;92.30
2112;DHT22;1062;52.538;13.400;2023-06-14T12:06:57;23.60;92.60
2112;DHT22;1062;52.538;13.400;2023-06-14T12:09:23;23.40;92.00
2112;DHT22;1062;52.538;13.400;2023-06-14T12:12:00;23.50;92.00
2112;DHT22;1062;52.538;13.400;2023-06-14T12:14:30;23.70;91.00
2112;DHT22;1062;52.538;13.400;2023-06-14T12:17:07;23.50;90.20
2112;DHT22;1062;52.538;13.400;2023-06-14T12:19:33;23.20;89.90
2112;DHT22;1062;52.538;13.400;2023-06-14T12:22:04;23.10;90.20
2112;DHT22;1062;52.538;13.400;2023-06-14T12:24:30;22.80;90.20
2112;DHT22;1062;52.538;13.400;2023-06-14T12:26:58;22.80;90.20
2112;DHT22;1062;52.538;13.400;2023-06-14T12:29:28;22.80;90.10
2112;DHT22;1062;52.538;13.400;2023-06-14T12:31:54;23.00;88.00
2112;DHT22;1062;52.538;13.400;2023-06-14T12:34:23;23.30;88.40
2112;DHT22;1062;52.538;13.400;2023-06-14T12:36:50;23.30;88.00
2112;DHT22;1062;52.538;13.400;2023-06-14T12:39:16;23.40;86.60
2112;DHT22;1062;52.538;13.400;2023-06-14T12:41:41;23.50;87.80
2112;DHT22;1062;52.538;13.400;2023-06-14T12:44:07;23.60;87.00
2112;DHT22;1062;52.538;13.400;2023-06-14T12:46:33;23.60;87.10
2112;DHT22;1062;52.538;13.400;2023-06-14T12:49:00;23.70;87.50
2112;DHT22;1062;52.538;13.400;2023-06-14T12:51:26;23.80;84.80
2112;DHT22;1062;52.538;13.400;2023-06-14T12:53:52;23.80;83.30
2112;DHT22;1062;52.538;13.400;2023-06-14T12:56:18;23.80;83.90
2112;DHT22;1062;52.538;13.400;2023-06-14T12:58:43;23.80;84.40
2112;DHT22;1062;52.538;13.400;2023-06-14T13:01:09;23.80;85.00
2112;DHT22;1062;52.538;13.400;2023-06-14T13:03:35;24.00;84.40
2112;DHT22;1062;52.538;13.400;2023-06-14T13:06:01;24.10;81.40
2112;DHT22;1062;52.538;13.400;2023-06-14T13:08:27;24.00;82.90
2112;DHT22;1062;52.538;13.400;2023-06-14T13:10:56;23.90;83.10
2112;DHT22;1062;52.538;13.400;2023-06-14T13:13:22;24.00;84.40
2112;DHT22;1062;52.538;13.400;2023-06-14T13:15:48;23.90;82.40
2112;DHT22;1062;52.538;13.400;2023-06-14T13:18:15;23.60;82.50
2112;DHT22;1062;52.538;13.400;2023-06-14T13:20:41;23.90;82.10
2112;DHT22;1062;52.538;13.400;2023-06-14T13:23:08;24.00;82.70
2112;DHT22;1062;52.538;13.400;2023-06-14T13:25:35;24.30;81.70
2112;DHT22;1062;52.538;13.400;2023-06-14T13:28:01;24.60;81.00
2112;DHT22;1062;52.538;13.400;2023-06-14T13:30:26;24.80;80.60
2112;DHT22;1062;52.538;13.400;2023-06-14T13:32:52;24.70;79.00
2112;DHT22;1062;52.538;13.400;2023-06-14T13:35:18;24.40;78.60
2112;DHT22;1062;52.538;13.400;2023-06-14T13:37:44;24.40;80.00
2112;DHT22;1062;52.538;13.400;2023-06-14T13:40:11;24.50;78.70
2112;DHT22;1062;52.538;13.400;2023-06-14T13:42:36;24.40;77.90
2112;DHT22;1062;52.538;13.400;2023-06-14T13:45:03;24.50;75.80
2112;DHT22;1062;52.538;13.400;2023-06-14T13:47:29;24.70;77.00
2112;DHT22;1062;52.538;13.400;2023-06-14T13:49:55;24.90;76.70
2112;DHT22;1062;52.538;13.400;2023-06-14T13:52:21;24.40;74.80
2112;DHT22;1062;52.538;13.400;2023-06-14T13:54:47;24.60;74.20
2112;DHT22;1062;52.538;13.400;2023-06-14T13:57:13;24.70;74.80
2112;DHT22;1062;52.538;13.400;2023-06-14T13:59:39;24.60;74.70
2112;DHT22;1062;52.538;13.400;2023-06-14T14:02:06;24.80;75.20
2112;DHT22;1062;52.538;13.400;2023-06-14T14:04:33;24.90;73.10
2112;DHT22;1062;52.538;13.400;2023-06-14T14:06:59;25.20;73.50
2112;DHT22;1062;52.538;13.400;2023-06-14T14:09:24;25.20;69.60
2112;DHT22;1062;52.538;13.400;2023-06-14T14:11:50;24.90;68.70
2112;DHT22;1062;52.538;13.400;2023-06-14T14:14:15;25.10;70.90
2112;DHT22;1062;52.538;13.400;2023-06-14T14:16:41;25.30;71.30
2112;DHT22;1062;52.538;13.400;2023-06-14T14:19:07;25.20;70.40
2112;DHT22;1062;52.538;13.400;2023-06-14T14:21:33;25.10;70.20
2112;DHT22;1062;52.538;13.400;2023-06-14T14:23:58;25.20;69.40
2112;DHT22;1062;52.538;13.400;2023-06-14T14:26:24;24.80;70.50
2112;DHT22;1062;52.538;13.400;2023-06-14T14:28:51;24.80;73.10
2112;DHT22;1062;52.538;13.400;2023-06-14T14:31:17;24.60;76.80
2112;DHT22;1062;52.538;13.400;2023-06-14T14:33:42;24.30;78.50
2112;DHT22;1062;52.538;13.400;2023-06-14T14:36:09;24.10;79.90
2112;DHT22;1062;52.538;13.400;2023-06-14T14:38:34;24.00;80.20
2112;DHT22;1062;52.538;13.400;2023-06-14T14:41:00;23.60;79.50
2112;DHT22;1062;52.538;13.400;2023-06-14T14:43:26;23.40;80.70
2112;DHT22;1062;52.538;13.400;2023-06-14T14:45:52;23.30;81.90
2112;DHT22;1062;52.538;13.400;2023-06-14T14:48:17;23.20;82.50
2112;DHT22;1062;52.538;13.400;2023-06-14T14:50:43;23.20;82.00
2112;DHT22;1062;52.538;13.400;2023-06-14T14:53:09;23.20;82.30
2112;DHT22;1062;52.538;13.400;2023-06-14T14:55:34;23.10;82.50
2112;DHT22;1062;52.538;13.400;2023-06-14T14:58:02;23.00;82.90
2112;DHT22;1062;52.538;13.400;2023-06-14T15:00:28;23.00;83.00
2112;DHT22;1062;52.538;13.400;2023-06-14T15:02:54;22.80;83.40
2112;DHT22;1062;52.538;13.400;2023-06-14T15:05:20;22.70;83.30
2112;DHT22;1062;52.538;13.400;2023-06-14T15:07:46;22.60;83.80
2112;DHT22;1062;52.538;13.400;2023-06-14T15:10:11;22.50;84.10
2112;DHT22;1062;52.538;13.400;2023-06-14T15:12:37;22.50;84.70
2112;DHT22;1062;52.538;13.400;2023-06-14T15:15:03;22.40;84.80
2112;DHT22;1062;52.538;13.400;2023-06-14T15:17:29;22.40;84.90
2112;DHT22;1062;52.538;13.400;2023-06-14T15:19:55;22.40;85.20
2112;DHT22;1062;52.538;13.400;2023-06-14T15:22:21;22.40;85.00
2112;DHT22;1062;52.538;13.400;2023-06-14T15:24:46;22.40;85.10
2112;DHT22;1062;52.538;13.400;2023-06-14T15:27:12;22.50;85.20
2112;DHT22;1062;52.538;13.400;2023-06-14T15:29:41;22.50;85.20
2112;DHT22;1062;52.538;13.400;2023-06-14T15:32:08;22.60;84.90
2112;DHT22;1062;52.538;13.400;2023-06-14T15:34:34;22.60;83.40
2112;DHT22;1062;52.538;13.400;2023-06-14T15:36:59;22.70;83.10
2112;DHT22;1062;52.538;13.400;2023-06-14T15:39:26;22.60;83.60
2112;DHT22;1062;52.538;13.400;2023-06-14T15:41:52;22.80;83.80
2112;DHT22;1062;52.538;13.400;2023-06-14T15:44:18;22.90;83.50
2112;DHT22;1062;52.538;13.400;2023-06-14T15:46:43;23.20;82.90
2112;DHT22;1062;52.538;13.400;2023-06-14T15:49:10;23.30;82.70
2112;DHT22;1062;52.538;13.400;2023-06-14T15:51:36;23.30;82.60
2112;DHT22;1062;52.538;13.400;2023-06-14T15:54:02;23.20;83.40
2112;DHT22;1062;52.538;13.400;2023-06-14T15:56:28;23.20;82.00
2112;DHT22;1062;52.538;13.400;2023-06-14T15:58:53;23.10;82.50
2112;DHT22;1062;52.538;13.400;2023-06-14T16:01:19;23.00;82.70
2112;DHT22;1062;52.538;13.400;2023-06-14T16:03:44;22.90;82.50